sensor_id;sensor_type;location;lat;lon;timestamp;P1;durP1;ratioP1;P2;durP2;ratioP2
5754;SDS011;2902;42.130;24.732;2023-02-28T00:01:18;15.63;;;7.63;;
5754;SDS011;2902;42.130;24.732;2023-02-28T00:03:45;13.60;;;7.80;;
5754;SDS011;2902;42.130;24.732;2023-02-28T00:06:12;18.57;;;7.40;;
5754;SDS011;2902;42.130;24.732;2023-02-28T00:08:39;14.33;;;8.57;;
5754;SDS011;2902;42.130;24.732;2023-02-28T00:11:07;11.10;;;8.33;;
5754;SDS011;2902;42.130;24.732;2023-02-28T00:13:36;10.97;;;7.40;;
5754;SDS011;2902;42.130;24.732;2023-02-28T00:16:05;15.93;;;8.10;;
5754;SDS011;2902;42.130;24.732;2023-02-28T00:18:34;14.90;;;7.00;;
5754;SDS011;2902;42.130;24.732;2023-02-28T00:21:01;14.13;;;7.17;;
5754;SDS011;2902;42.130;24.732;2023-02-28T00:23:27;14.87;;;7.97;;
5754;SDS011;2902;42.130;24.732;2023-02-28T00:25:54;15.17;;;7.30;;
5754;SDS011;2902;42.130;24.732;2023-02-28T00:28:21;17.67;;;7.37;;
5754;SDS011;2902;42.130;24.732;2023-02-28T00:30:48;15.03;;;7.23;;
5754;SDS011;2902;42.130;24.732;2023-02-28T00:33:16;10.53;;;7.17;;
5754;SDS011;2902;42.130;24.732;2023-02-28T00:35:43;13.83;;;6.77;;
5754;SDS011;2902;42.130;24.732;2023-02-28T00:38:11;14.53;;;7.27;;
5754;SDS011;2902;42.130;24.732;2023-02-28T00:40:38;14.60;;;6.43;;
5754;SDS011;2902;42.130;24.732;2023-02-28T00:43:04;16.17;;;7.57;;
5754;SDS011;2902;42.130;24.732;2023-02-28T00:45:31;11.93;;;7.13;;
5754;SDS011;2902;42.130;24.732;2023-02-28T00:47:58;14.60;;;7.60;;
5754;SDS011;2902;42.130;24.732;2023-02-28T00:50:26;9.23;;;6.50;;
5754;SDS011;2902;42.130;24.732;2023-02-28T00:52:53;10.73;;;6.60;;
5754;SDS011;2902;42.130;24.732;2023-02-28T00:55:19;13.07;;;6.77;;
5754;SDS011;2902;42.130;24.732;2023-02-28T00:57:46;8.93;;;6.57;;
5754;SDS011;2902;42.130;24.732;2023-02-28T01:00:13;13.00;;;7.27;;
5754;SDS011;2902;42.130;24.732;2023-02-28T01:02:40;13.57;;;6.90;;
5754;SDS011;2902;42.130;24.732;2023-02-28T01:05:07;11.37;;;7.37;;
5754;SDS011;2902;42.130;24.732;2023-02-28T01:07:36;11.17;;;7.37;;
5754;SDS011;2902;42.130;24.732;2023-02-28T01:10:03;16.53;;;7.20;;
5754;SDS011;2902;42.130;24.732;2023-02-28T01:12:30;9.80;;;7.07;;
5754;SDS011;2902;42.130;24.732;2023-02-28T01:14:57;11.57;;;7.40;;
5754;SDS011;2902;42.130;24.732;2023-02-28T01:17:24;12.47;;;6.93;;
5754;SDS011;2902;42.130;24.732;2023-02-28T01:19:52;11.83;;;7.70;;
5754;SDS011;2902;42.130;24.732;2023-02-28T01:22:20;9.57;;;7.40;;
5754;SDS011;2902;42.130;24.732;2023-02-28T01:24:48;16.87;;;7.20;;
5754;SDS011;2902;42.130;24.732;2023-02-28T01:27:15;13.80;;;7.27;;
5754;SDS011;2902;42.130;24.732;2023-02-28T01:29:41;15.73;;;6.90;;
5754;SDS011;2902;42.130;24.732;2023-02-28T01:32:08;19.47;;;6.90;;
5754;SDS011;2902;42.130;24.732;2023-02-28T01:34:35;15.83;;;7.27;;
5754;SDS011;2902;42.130;24.732;2023-02-28T01:37:01;16.07;;;7.33;;
5754;SDS011;2902;42.130;24.732;2023-02-28T01:39:28;10.63;;;6.80;;
5754;SDS011;2902;42.130;24.732;2023-02-28T01:41:56;9.83;;;6.57;;
5754;SDS011;2902;42.130;24.732;2023-02-28T01:47:23;11.67;;;7.33;;
5754;SDS011;2902;42.130;24.732;2023-02-28T01:49:53;14.43;;;7.27;;
5754;SDS011;2902;42.130;24.732;2023-02-28T01:52:20;16.63;;;7.30;;
5754;SDS011;2902;42.130;24.732;2023-02-28T01:54:51;14.57;;;7.70;;
5754;SDS011;2902;42.130;24.732;2023-02-28T01:57:21;16.77;;;8.00;;
5754;SDS011;2902;42.130;24.732;2023-02-28T01:59:52;12.77;;;9.07;;
5754;SDS011;2902;42.130;24.732;2023-02-28T02:02:24;18.60;;;9.80;;
5754;SDS011;2902;42.130;24.732;2023-02-28T02:04:53;16.47;;;10.30;;
5754;SDS011;2902;42.130;24.732;2023-02-28T02:07:22;22.07;;;9.63;;
5754;SDS011;2902;42.130;24.732;2023-02-28T02:09:56;15.03;;;9.57;;
5754;SDS011;2902;42.130;24.732;2023-02-28T02:12:32;19.77;;;9.37;;
5754;SDS011;2902;42.130;24.732;2023-02-28T02:15:19;17.30;;;10.13;;
5754;SDS011;2902;42.130;24.732;2023-02-28T02:17:51;17.97;;;8.27;;
5754;SDS011;2902;42.130;24.732;2023-02-28T02:23:29;13.93;;;8.30;;
5754;SDS011;2902;42.130;24.732;2023-02-28T02:26:12;14.77;;;8.90;;
5754;SDS011;2902;42.130;24.732;2023-02-28T02:29:09;15.27;;;8.00;;
5754;SDS011;2902;42.130;24.732;2023-02-28T02:32:20;16.60;;;9.03;;
5754;SDS011;2902;42.130;24.732;2023-02-28T02:35:12;15.10;;;8.47;;
5754;SDS011;2902;42.130;24.732;2023-02-28T02:37:43;9.30;;;7.77;;
5754;SDS011;2902;42.130;24.732;2023-02-28T02:40:16;19.37;;;9.57;;
5754;SDS011;2902;42.130;24.732;2023-02-28T02:42:47;11.87;;;8.50;;
5754;SDS011;2902;42.130;24.732;2023-02-28T02:45:22;11.37;;;8.23;;
5754;SDS011;2902;42.130;24.732;2023-02-28T02:47:52;16.17;;;9.17;;
5754;SDS011;2902;42.130;24.732;2023-02-28T02:50:22;12.23;;;8.67;;
5754;SDS011;2902;42.130;24.732;2023-02-28T02:52:54;14.10;;;8.90;;
5754;SDS011;2902;42.130;24.732;2023-02-28T02:55:24;12.90;;;8.47;;
5754;SDS011;2902;42.130;24.732;2023-02-28T02:57:52;14.20;;;9.03;;
5754;SDS011;2902;42.130;24.732;2023-02-28T03:00:23;13.87;;;8.40;;
5754;SDS011;2902;42.130;24.732;2023-02-28T03:02:52;21.50;;;9.27;;
5754;SDS011;2902;42.130;24.732;2023-02-28T03:05:23;13.80;;;9.00;;
5754;SDS011;2902;42.130;24.732;2023-02-28T03:07:52;12.97;;;8.60;;
5754;SDS011;2902;42.130;24.732;2023-02-28T03:10:26;13.27;;;9.03;;
5754;SDS011;2902;42.130;24.732;2023-02-28T03:13:00;13.17;;;9.83;;
5754;SDS011;2902;42.130;24.732;2023-02-28T03:15:52;15.10;;;10.47;;
5754;SDS011;2902;42.130;24.732;2023-02-28T03:18:31;23.17;;;10.30;;
5754;SDS011;2902;42.130;24.732;2023-02-28T03:21:06;13.97;;;10.33;;
5754;SDS011;2902;42.130;24.732;2023-02-28T03:23:42;15.13;;;9.87;;
5754;SDS011;2902;42.130;24.732;2023-02-28T03:26:16;18.97;;;11.30;;
5754;SDS011;2902;42.130;24.732;2023-02-28T03:28:51;13.80;;;10.30;;
5754;SDS011;2902;42.130;24.732;2023-02-28T03:31:29;16.33;;;9.57;;
5754;SDS011;2902;42.130;24.732;2023-02-28T03:33:59;23.07;;;11.93;;
5754;SDS011;2902;42.130;24.732;2023-02-28T03:36:31;15.27;;;11.40;;
5754;SDS011;2902;42.130;24.732;2023-02-28T03:39:07;15.40;;;10.77;;
5754;SDS011;2902;42.130;24.732;2023-02-28T03:41:36;17.83;;;12.10;;
5754;SDS011;2902;42.130;24.732;2023-02-28T03:44:06;15.93;;;11.47;;
5754;SDS011;2902;42.130;24.732;2023-02-28T03:46:41;22.33;;;11.40;;
5754;SDS011;2902;42.130;24.732;2023-02-28T03:49:15;16.53;;;11.60;;
5754;SDS011;2902;42.130;24.732;2023-02-28T03:51:47;19.50;;;12.23;;
5754;SDS011;2902;42.130;24.732;2023-02-28T03:54:18;18.77;;;12.60;;
5754;SDS011;2902;42.130;24.732;2023-02-28T03:56:50;20.07;;;12.67;;
5754;SDS011;2902;42.130;24.732;2023-02-28T03:59:22;20.17;;;12.03;;
5754;SDS011;2902;42.130;24.732;2023-02-28T04:01:53;13.97;;;11.67;;
5754;SDS011;2902;42.130;24.732;2023-02-28T04:04:23;16.50;;;12.57;;
5754;SDS011;2902;42.130;24.732;2023-02-28T04:06:51;12.70;;;11.23;;
5754;SDS011;2902;42.130;24.732;2023-02-28T04:09:26;19.77;;;11.97;;
5754;SDS011;2902;42.130;24.732;2023-02-28T04:11:53;20.57;;;13.27;;
5754;SDS011;2902;42.130;24.732;2023-02-28T04:14:20;19.53;;;11.73;;
5754;SDS011;2902;42.130;24.732;2023-02-28T04:16:47;18.30;;;11.40;;
5754;SDS011;2902;42.130;24.732;2023-02-28T04:19:16;20.83;;;11.80;;
5754;SDS011;2902;42.130;24.732;2023-02-28T04:21:44;16.17;;;10.80;;
5754;SDS011;2902;42.130;24.732;2023-02-28T04:24:13;18.07;;;12.17;;
5754;SDS011;2902;42.130;24.732;2023-02-28T04:26:42;19.20;;;11.17;;
5754;SDS011;2902;42.130;24.732;2023-02-28T04:29:10;18.20;;;10.57;;
5754;SDS011;2902;42.130;24.732;2023-02-28T04:31:38;21.40;;;10.73;;
5754;SDS011;2902;42.130;24.732;2023-02-28T04:34:05;16.30;;;11.60;;
5754;SDS011;2902;42.130;24.732;2023-02-28T04:36:32;17.67;;;11.20;;
5754;SDS011;2902;42.130;24.732;2023-02-28T04:38:59;15.70;;;11.30;;
5754;SDS011;2902;42.130;24.732;2023-02-28T04:41:27;17.00;;;10.53;;
5754;SDS011;2902;42.130;24.732;2023-02-28T04:43:53;11.73;;;10.43;;
5754;SDS011;2902;42.130;24.732;2023-02-28T04:46:21;15.60;;;10.50;;
5754;SDS011;2902;42.130;24.732;2023-02-28T04:48:48;15.63;;;10.63;;
5754;SDS011;2902;42.130;24.732;2023-02-28T04:51:16;14.73;;;10.60;;
5754;SDS011;2902;42.130;24.732;2023-02-28T04:53:44;11.93;;;10.73;;
5754;SDS011;2902;42.130;24.732;2023-02-28T04:56:12;11.77;;;9.57;;
5754;SDS011;2902;42.130;24.732;2023-02-28T04:58:41;19.53;;;11.37;;
5754;SDS011;2902;42.130;24.732;2023-02-28T05:01:15;15.80;;;9.97;;
5754;SDS011;2902;42.130;24.732;2023-02-28T05:03:44;12.47;;;10.83;;
5754;SDS011;2902;42.130;24.732;2023-02-28T05:06:11;11.50;;;10.13;;
5754;SDS011;2902;42.130;24.732;2023-02-28T05:08:39;16.77;;;10.73;;
5754;SDS011;2902;42.130;24.732;2023-02-28T05:11:06;16.00;;;11.17;;
5754;SDS011;2902;42.130;24.732;2023-02-28T05:13:38;14.03;;;11.53;;
5754;SDS011;2902;42.130;24.732;2023-02-28T05:16:07;12.70;;;10.60;;
5754;SDS011;2902;42.130;24.732;2023-02-28T05:18:33;19.63;;;10.60;;
5754;SDS011;2902;42.130;24.732;2023-02-28T05:21:00;11.90;;;9.97;;
5754;SDS011;2902;42.130;24.732;2023-02-28T05:23:27;13.83;;;10.27;;
5754;SDS011;2902;42.130;24.732;2023-02-28T05:25:54;12.30;;;10.47;;
5754;SDS011;2902;42.130;24.732;2023-02-28T05:28:21;11.47;;;10.27;;
5754;SDS011;2902;42.130;24.732;2023-02-28T05:30:48;23.30;;;11.37;;
5754;SDS011;2902;42.130;24.732;2023-02-28T05:33:16;14.80;;;11.23;;
5754;SDS011;2902;42.130;24.732;2023-02-28T05:35:43;15.93;;;11.37;;
5754;SDS011;2902;42.130;24.732;2023-02-28T05:38:09;16.30;;;11.07;;
5754;SDS011;2902;42.130;24.732;2023-02-28T05:40:37;15.40;;;10.97;;
5754;SDS011;2902;42.130;24.732;2023-02-28T05:43:05;17.10;;;11.80;;
5754;SDS011;2902;42.130;24.732;2023-02-28T05:45:32;18.07;;;12.00;;
5754;SDS011;2902;42.130;24.732;2023-02-28T05:47:58;12.83;;;11.43;;
5754;SDS011;2902;42.130;24.732;2023-02-28T05:50:26;20.77;;;14.07;;
5754;SDS011;2902;42.130;24.732;2023-02-28T05:52:53;20.03;;;13.10;;
5754;SDS011;2902;42.130;24.732;2023-02-28T05:55:20;28.33;;;16.17;;
5754;SDS011;2902;42.130;24.732;2023-02-28T05:57:47;21.80;;;14.90;;
5754;SDS011;2902;42.130;24.732;2023-02-28T06:00:13;16.73;;;13.23;;
5754;SDS011;2902;42.130;24.732;2023-02-28T06:02:43;18.30;;;13.50;;
5754;SDS011;2902;42.130;24.732;2023-02-28T06:05:11;22.37;;;14.27;;
5754;SDS011;2902;42.130;24.732;2023-02-28T06:07:42;18.37;;;12.70;;
5754;SDS011;2902;42.130;24.732;2023-02-28T06:10:09;17.20;;;12.77;;
5754;SDS011;2902;42.130;24.732;2023-02-28T06:12:36;17.47;;;12.40;;
5754;SDS011;2902;42.130;24.732;2023-02-28T06:15:04;17.60;;;12.27;;
5754;SDS011;2902;42.130;24.732;2023-02-28T06:17:31;16.37;;;11.73;;
5754;SDS011;2902;42.130;24.732;2023-02-28T06:19:58;16.73;;;12.20;;
5754;SDS011;2902;42.130;24.732;2023-02-28T06:22:25;18.70;;;12.67;;
5754;SDS011;2902;42.130;24.732;2023-02-28T06:24:53;18.60;;;11.67;;
5754;SDS011;2902;42.130;24.732;2023-02-28T06:27:20;21.43;;;12.43;;
5754;SDS011;2902;42.130;24.732;2023-02-28T06:29:47;18.30;;;12.77;;
5754;SDS011;2902;42.130;24.732;2023-02-28T06:32:14;17.37;;;11.97;;
5754;SDS011;2902;42.130;24.732;2023-02-28T06:34:40;19.23;;;12.50;;
5754;SDS011;2902;42.130;24.732;2023-02-28T06:37:07;18.03;;;12.60;;
5754;SDS011;2902;42.130;24.732;2023-02-28T06:39:34;16.73;;;12.63;;
5754;SDS011;2902;42.130;24.732;2023-02-28T06:42:02;15.57;;;12.60;;
5754;SDS011;2902;42.130;24.732;2023-02-28T06:44:29;18.63;;;12.37;;
5754;SDS011;2902;42.130;24.732;2023-02-28T06:47:00;20.33;;;14.30;;
5754;SDS011;2902;42.130;24.732;2023-02-28T06:49:28;21.03;;;12.73;;
5754;SDS011;2902;42.130;24.732;2023-02-28T06:51:55;17.00;;;11.87;;
5754;SDS011;2902;42.130;24.732;2023-02-28T06:54:22;18.63;;;12.30;;
5754;SDS011;2902;42.130;24.732;2023-02-28T06:56:48;18.23;;;12.83;;
5754;SDS011;2902;42.130;24.732;2023-02-28T06:59:17;22.17;;;13.57;;
5754;SDS011;2902;42.130;24.732;2023-02-28T07:01:43;20.80;;;12.80;;
5754;SDS011;2902;42.130;24.732;2023-02-28T07:04:10;14.53;;;12.50;;
5754;SDS011;2902;42.130;24.732;2023-02-28T07:06:38;19.43;;;13.07;;
5754;SDS011;2902;42.130;24.732;2023-02-28T07:09:04;23.00;;;13.93;;
5754;SDS011;2902;42.130;24.732;2023-02-28T07:11:31;25.33;;;13.80;;
5754;SDS011;2902;42.130;24.732;2023-02-28T07:13:58;23.80;;;14.90;;
5754;SDS011;2902;42.130;24.732;2023-02-28T07:16:26;22.87;;;13.43;;
5754;SDS011;2902;42.130;24.732;2023-02-28T07:18:53;21.53;;;14.03;;
5754;SDS011;2902;42.130;24.732;2023-02-28T07:21:20;18.37;;;13.23;;
5754;SDS011;2902;42.130;24.732;2023-02-28T07:23:47;25.13;;;14.13;;
5754;SDS011;2902;42.130;24.732;2023-02-28T07:26:14;21.50;;;14.37;;
5754;SDS011;2902;42.130;24.732;2023-02-28T07:28:42;15.40;;;13.33;;
5754;SDS011;2902;42.130;24.732;2023-02-28T07:31:09;18.30;;;14.37;;
5754;SDS011;2902;42.130;24.732;2023-02-28T07:33:40;25.33;;;16.20;;
5754;SDS011;2902;42.130;24.732;2023-02-28T07:36:08;23.97;;;16.40;;
5754;SDS011;2902;42.130;24.732;2023-02-28T07:38:39;28.27;;;15.53;;
5754;SDS011;2902;42.130;24.732;2023-02-28T07:41:05;24.97;;;15.43;;
5754;SDS011;2902;42.130;24.732;2023-02-28T07:43:33;23.30;;;15.63;;
5754;SDS011;2902;42.130;24.732;2023-02-28T07:46:01;25.77;;;16.93;;
5754;SDS011;2902;42.130;24.732;2023-02-28T07:48:29;26.83;;;17.50;;
5754;SDS011;2902;42.130;24.732;2023-02-28T07:50:57;28.77;;;18.37;;
5754;SDS011;2902;42.130;24.732;2023-02-28T07:53:25;26.10;;;17.90;;
5754;SDS011;2902;42.130;24.732;2023-02-28T07:55:54;27.10;;;17.50;;
5754;SDS011;2902;42.130;24.732;2023-02-28T07:58:22;32.43;;;17.63;;
5754;SDS011;2902;42.130;24.732;2023-02-28T08:00:49;29.53;;;19.40;;
5754;SDS011;2902;42.130;24.732;2023-02-28T08:03:16;25.83;;;17.17;;
5754;SDS011;2902;42.130;24.732;2023-02-28T08:05:43;25.27;;;15.97;;
5754;SDS011;2902;42.130;24.732;2023-02-28T08:08:11;29.87;;;17.33;;
5754;SDS011;2902;42.130;24.732;2023-02-28T08:10:38;26.30;;;16.60;;
5754;SDS011;2902;42.130;24.732;2023-02-28T08:13:04;26.20;;;17.73;;
5754;SDS011;2902;42.130;24.732;2023-02-28T08:15:31;32.87;;;15.97;;
5754;SDS011;2902;42.130;24.732;2023-02-28T08:17:58;22.57;;;15.47;;
5754;SDS011;2902;42.130;24.732;2023-02-28T08:20:25;23.50;;;16.40;;
5754;SDS011;2902;42.130;24.732;2023-02-28T08:22:53;23.27;;;15.60;;
5754;SDS011;2902;42.130;24.732;2023-02-28T08:25:21;22.07;;;15.70;;
5754;SDS011;2902;42.130;24.732;2023-02-28T08:27:47;26.77;;;15.83;;
5754;SDS011;2902;42.130;24.732;2023-02-28T08:30:17;28.93;;;16.63;;
5754;SDS011;2902;42.130;24.732;2023-02-28T08:32:43;21.00;;;15.73;;
5754;SDS011;2902;42.130;24.732;2023-02-28T08:35:10;22.13;;;15.77;;
5754;SDS011;2902;42.130;24.732;2023-02-28T08:37:37;24.53;;;15.77;;
5754;SDS011;2902;42.130;24.732;2023-02-28T08:40:04;24.30;;;15.60;;
5754;SDS011;2902;42.130;24.732;2023-02-28T08:42:33;28.10;;;15.90;;
5754;SDS011;2902;42.130;24.732;2023-02-28T08:45:00;25.77;;;16.00;;
5754;SDS011;2902;42.130;24.732;2023-02-28T08:47:26;24.23;;;16.03;;
5754;SDS011;2902;42.130;24.732;2023-02-28T08:49:53;24.97;;;17.17;;
5754;SDS011;2902;42.130;24.732;2023-02-28T08:52:20;26.03;;;16.90;;
5754;SDS011;2902;42.130;24.732;2023-02-28T08:54:47;29.97;;;21.13;;
5754;SDS011;2902;42.130;24.732;2023-02-28T08:57:14;30.23;;;19.17;;
5754;SDS011;2902;42.130;24.732;2023-02-28T08:59:42;33.77;;;23.17;;
5754;SDS011;2902;42.130;24.732;2023-02-28T09:02:09;30.67;;;20.77;;
5754;SDS011;2902;42.130;24.732;2023-02-28T09:04:38;29.73;;;19.37;;
5754;SDS011;2902;42.130;24.732;2023-02-28T09:07:05;29.70;;;19.20;;
5754;SDS011;2902;42.130;24.732;2023-02-28T09:09:31;29.47;;;18.20;;
5754;SDS011;2902;42.130;24.732;2023-02-28T09:11:58;30.70;;;17.67;;
5754;SDS011;2902;42.130;24.732;2023-02-28T09:14:25;29.83;;;18.10;;
5754;SDS011;2902;42.130;24.732;2023-02-28T09:16:53;28.53;;;16.97;;
5754;SDS011;2902;42.130;24.732;2023-02-28T09:19:20;27.13;;;17.33;;
5754;SDS011;2902;42.130;24.732;2023-02-28T09:21:47;22.83;;;17.07;;
5754;SDS011;2902;42.130;24.732;2023-02-28T09:24:14;28.17;;;18.67;;
5754;SDS011;2902;42.130;24.732;2023-02-28T09:26:40;28.60;;;18.83;;
5754;SDS011;2902;42.130;24.732;2023-02-28T09:29:07;29.10;;;20.47;;
5754;SDS011;2902;42.130;24.732;2023-02-28T09:31:34;26.47;;;20.83;;
5754;SDS011;2902;42.130;24.732;2023-02-28T09:34:03;26.40;;;19.47;;
5754;SDS011;2902;42.130;24.732;2023-02-28T09:36:30;29.67;;;19.10;;
5754;SDS011;2902;42.130;24.732;2023-02-28T09:38:58;27.03;;;18.30;;
5754;SDS011;2902;42.130;24.732;2023-02-28T09:41:25;27.87;;;17.63;;
5754;SDS011;2902;42.130;24.732;2023-02-28T09:43:56;27.30;;;19.57;;
5754;SDS011;2902;42.130;24.732;2023-02-28T09:46:27;31.80;;;18.77;;
5754;SDS011;2902;42.130;24.732;2023-02-28T09:48:59;34.77;;;19.70;;
5754;SDS011;2902;42.130;24.732;2023-02-28T09:51:44;32.67;;;20.27;;
5754;SDS011;2902;42.130;24.732;2023-02-28T09:54:17;31.10;;;18.63;;
5754;SDS011;2902;42.130;24.732;2023-02-28T09:56:45;25.33;;;19.37;;
5754;SDS011;2902;42.130;24.732;2023-02-28T09:59:18;30.57;;;21.97;;
5754;SDS011;2902;42.130;24.732;2023-02-28T10:01:56;29.20;;;20.97;;
5754;SDS011;2902;42.130;24.732;2023-02-28T10:04:40;26.57;;;18.43;;
5754;SDS011;2902;42.130;24.732;2023-02-28T10:07:18;24.83;;;17.53;;
5754;SDS011;2902;42.130;24.732;2023-02-28T10:09:54;24.37;;;17.50;;
5754;SDS011;2902;42.130;24.732;2023-02-28T10:12:26;20.70;;;18.03;;
5754;SDS011;2902;42.130;24.732;2023-02-28T10:14:55;28.77;;;19.27;;
5754;SDS011;2902;42.130;24.732;2023-02-28T10:17:28;27.67;;;18.80;;
5754;SDS011;2902;42.130;24.732;2023-02-28T10:20:09;25.70;;;18.13;;
5754;SDS011;2902;42.130;24.732;2023-02-28T10:22:41;26.90;;;19.13;;
5754;SDS011;2902;42.130;24.732;2023-02-28T10:25:20;23.50;;;18.27;;
5754;SDS011;2902;42.130;24.732;2023-02-28T10:27:49;24.80;;;18.90;;
5754;SDS011;2902;42.130;24.732;2023-02-28T10:30:20;25.03;;;18.33;;
5754;SDS011;2902;42.130;24.732;2023-02-28T10:32:48;33.73;;;19.57;;
5754;SDS011;2902;42.130;24.732;2023-02-28T10:35:20;28.73;;;19.23;;
5754;SDS011;2902;42.130;24.732;2023-02-28T10:37:49;30.70;;;19.90;;
5754;SDS011;2902;42.130;24.732;2023-02-28T10:40:28;29.37;;;18.97;;
5754;SDS011;2902;42.130;24.732;2023-02-28T10:42:57;33.83;;;20.10;;
5754;SDS011;2902;42.130;24.732;2023-02-28T10:45:25;35.70;;;20.00;;
5754;SDS011;2902;42.130;24.732;2023-02-28T10:47:55;33.70;;;20.87;;
5754;SDS011;2902;42.130;24.732;2023-02-28T10:50:30;28.47;;;21.07;;
5754;SDS011;2902;42.130;24.732;2023-02-28T10:53:10;27.53;;;20.40;;
5754;SDS011;2902;42.130;24.732;2023-02-28T10:55:42;31.07;;;21.10;;
5754;SDS011;2902;42.130;24.732;2023-02-28T10:58:22;30.60;;;20.73;;
5754;SDS011;2902;42.130;24.732;2023-02-28T11:00:50;34.37;;;22.03;;
5754;SDS011;2902;42.130;24.732;2023-02-28T11:03:24;29.13;;;21.23;;
5754;SDS011;2902;42.130;24.732;2023-02-28T11:05:56;33.03;;;20.67;;
5754;SDS011;2902;42.130;24.732;2023-02-28T11:08:23;32.47;;;21.03;;
5754;SDS011;2902;42.130;24.732;2023-02-28T11:10:54;29.20;;;21.27;;
5754;SDS011;2902;42.130;24.732;2023-02-28T11:13:32;32.63;;;20.73;;
5754;SDS011;2902;42.130;24.732;2023-02-28T11:16:00;36.37;;;21.90;;
5754;SDS011;2902;42.130;24.732;2023-02-28T11:18:30;33.60;;;21.67;;
5754;SDS011;2902;42.130;24.732;2023-02-28T11:21:06;30.17;;;20.10;;
5754;SDS011;2902;42.130;24.732;2023-02-28T11:23:36;28.53;;;20.97;;
5754;SDS011;2902;42.130;24.732;2023-02-28T11:26:06;35.70;;;20.93;;
5754;SDS011;2902;42.130;24.732;2023-02-28T11:28:36;29.00;;;21.17;;
5754;SDS011;2902;42.130;24.732;2023-02-28T11:31:05;31.23;;;20.87;;
5754;SDS011;2902;42.130;24.732;2023-02-28T11:33:44;33.53;;;22.13;;
5754;SDS011;2902;42.130;24.732;2023-02-28T11:36:16;32.73;;;21.87;;
5754;SDS011;2902;42.130;24.732;2023-02-28T11:38:45;31.27;;;22.70;;
5754;SDS011;2902;42.130;24.732;2023-02-28T11:41:21;37.03;;;25.80;;
5754;SDS011;2902;42.130;24.732;2023-02-28T11:44:06;29.93;;;22.37;;
5754;SDS011;2902;42.130;24.732;2023-02-28T11:46:50;30.67;;;21.07;;
5754;SDS011;2902;42.130;24.732;2023-02-28T11:49:23;33.10;;;22.30;;
5754;SDS011;2902;42.130;24.732;2023-02-28T11:52:00;31.70;;;23.07;;
5754;SDS011;2902;42.130;24.732;2023-02-28T11:54:36;33.90;;;22.60;;
5754;SDS011;2902;42.130;24.732;2023-02-28T11:57:22;32.63;;;22.70;;
5754;SDS011;2902;42.130;24.732;2023-02-28T12:00:19;39.30;;;22.63;;
5754;SDS011;2902;42.130;24.732;2023-02-28T12:03:07;29.93;;;21.83;;
5754;SDS011;2902;42.130;24.732;2023-02-28T12:05:44;42.13;;;25.03;;
5754;SDS011;2902;42.130;24.732;2023-02-28T12:08:20;35.80;;;26.67;;
5754;SDS011;2902;42.130;24.732;2023-02-28T12:11:01;41.97;;;28.47;;
5754;SDS011;2902;42.130;24.732;2023-02-28T12:13:37;39.40;;;27.70;;
5754;SDS011;2902;42.130;24.732;2023-02-28T12:16:29;26.60;;;19.90;;
5754;SDS011;2902;42.130;24.732;2023-02-28T12:19:17;44.33;;;30.20;;
5754;SDS011;2902;42.130;24.732;2023-02-28T12:21:54;43.77;;;29.43;;
5754;SDS011;2902;42.130;24.732;2023-02-28T12:24:38;42.97;;;29.70;;
5754;SDS011;2902;42.130;24.732;2023-02-28T12:27:17;39.20;;;26.07;;
5754;SDS011;2902;42.130;24.732;2023-02-28T12:29:49;37.40;;;27.60;;
5754;SDS011;2902;42.130;24.732;2023-02-28T12:32:21;42.00;;;28.87;;
5754;SDS011;2902;42.130;24.732;2023-02-28T12:34:54;39.03;;;24.60;;
5754;SDS011;2902;42.130;24.732;2023-02-28T12:37:28;50.73;;;28.87;;
5754;SDS011;2902;42.130;24.732;2023-02-28T12:40:02;40.50;;;28.43;;
5754;SDS011;2902;42.130;24.732;2023-02-28T12:42:32;51.90;;;33.97;;
5754;SDS011;2902;42.130;24.732;2023-02-28T12:45:05;48.13;;;29.13;;
5754;SDS011;2902;42.130;24.732;2023-02-28T12:47:37;44.07;;;31.17;;
5754;SDS011;2902;42.130;24.732;2023-02-28T12:50:08;43.37;;;27.87;;
5754;SDS011;2902;42.130;24.732;2023-02-28T12:52:40;40.13;;;28.63;;
5754;SDS011;2902;42.130;24.732;2023-02-28T12:55:13;54.20;;;31.53;;
5754;SDS011;2902;42.130;24.732;2023-02-28T12:57:48;44.20;;;28.40;;
5754;SDS011;2902;42.130;24.732;2023-02-28T13:00:20;46.53;;;29.57;;
5754;SDS011;2902;42.130;24.732;2023-02-28T13:02:55;50.43;;;31.93;;
5754;SDS011;2902;42.130;24.732;2023-02-28T13:05:46;55.10;;;31.33;;
5754;SDS011;2902;42.130;24.732;2023-02-28T13:08:38;45.83;;;28.00;;
5754;SDS011;2902;42.130;24.732;2023-02-28T13:11:29;45.97;;;26.90;;
5754;SDS011;2902;42.130;24.732;2023-02-28T13:13:58;40.17;;;27.07;;
5754;SDS011;2902;42.130;24.732;2023-02-28T13:16:26;40.70;;;28.67;;
5754;SDS011;2902;42.130;24.732;2023-02-28T13:18:53;36.63;;;26.63;;
5754;SDS011;2902;42.130;24.732;2023-02-28T13:21:41;42.63;;;27.43;;
5754;SDS011;2902;42.130;24.732;2023-02-28T13:24:10;41.80;;;27.20;;
5754;SDS011;2902;42.130;24.732;2023-02-28T13:33:21;39.20;;;26.33;;
5754;SDS011;2902;42.130;24.732;2023-02-28T13:38:54;42.60;;;28.33;;
5754;SDS011;2902;42.130;24.732;2023-02-28T13:41:46;48.97;;;29.90;;
5754;SDS011;2902;42.130;24.732;2023-02-28T13:44:18;41.27;;;26.57;;
5754;SDS011;2902;42.130;24.732;2023-02-28T13:49:49;42.57;;;27.93;;
5754;SDS011;2902;42.130;24.732;2023-02-28T13:52:18;34.07;;;25.20;;
5754;SDS011;2902;42.130;24.732;2023-02-28T13:54:56;39.40;;;27.97;;
5754;SDS011;2902;42.130;24.732;2023-02-28T13:57:41;41.33;;;27.00;;
5754;SDS011;2902;42.130;24.732;2023-02-28T14:00:23;41.67;;;26.73;;
5754;SDS011;2902;42.130;24.732;2023-02-28T14:03:13;41.83;;;30.67;;
5754;SDS011;2902;42.130;24.732;2023-02-28T14:05:51;48.20;;;34.63;;
5754;SDS011;2902;42.130;24.732;2023-02-28T14:08:36;39.00;;;26.17;;
5754;SDS011;2902;42.130;24.732;2023-02-28T14:11:04;37.80;;;27.77;;
5754;SDS011;2902;42.130;24.732;2023-02-28T14:13:40;43.07;;;27.30;;
5754;SDS011;2902;42.130;24.732;2023-02-28T14:16:13;41.80;;;27.33;;
5754;SDS011;2902;42.130;24.732;2023-02-28T14:18:41;48.37;;;33.40;;
5754;SDS011;2902;42.130;24.732;2023-02-28T14:21:16;59.90;;;38.43;;
5754;SDS011;2902;42.130;24.732;2023-02-28T14:27:05;37.13;;;25.77;;
5754;SDS011;2902;42.130;24.732;2023-02-28T14:33:00;32.80;;;22.60;;
5754;SDS011;2902;42.130;24.732;2023-02-28T14:35:48;27.93;;;21.83;;
5754;SDS011;2902;42.130;24.732;2023-02-28T14:38:26;29.77;;;22.07;;
5754;SDS011;2902;42.130;24.732;2023-02-28T14:40:57;26.73;;;21.27;;
5754;SDS011;2902;42.130;24.732;2023-02-28T14:43:27;26.90;;;20.97;;
5754;SDS011;2902;42.130;24.732;2023-02-28T14:45:55;25.97;;;20.27;;
5754;SDS011;2902;42.130;24.732;2023-02-28T14:48:25;24.63;;;19.63;;
5754;SDS011;2902;42.130;24.732;2023-02-28T14:50:54;27.27;;;20.47;;
5754;SDS011;2902;42.130;24.732;2023-02-28T14:53:23;27.93;;;19.47;;
5754;SDS011;2902;42.130;24.732;2023-02-28T14:55:52;30.33;;;21.23;;
5754;SDS011;2902;42.130;24.732;2023-02-28T14:58:23;28.00;;;20.67;;
5754;SDS011;2902;42.130;24.732;2023-02-28T15:00:51;28.83;;;21.50;;
5754;SDS011;2902;42.130;24.732;2023-02-28T15:03:20;24.93;;;21.73;;
5754;SDS011;2902;42.130;24.732;2023-02-28T15:05:57;29.17;;;22.17;;
5754;SDS011;2902;42.130;24.732;2023-02-28T15:08:25;32.40;;;23.77;;
5754;SDS011;2902;42.130;24.732;2023-02-28T15:10:54;29.93;;;21.73;;
5754;SDS011;2902;42.130;24.732;2023-02-28T15:13:23;26.50;;;21.93;;
5754;SDS011;2902;42.130;24.732;2023-02-28T15:15:57;30.83;;;21.17;;
5754;SDS011;2902;42.130;24.732;2023-02-28T15:18:29;29.27;;;21.07;;
5754;SDS011;2902;42.130;24.732;2023-02-28T15:21:02;26.87;;;20.90;;
5754;SDS011;2902;42.130;24.732;2023-02-28T15:23:32;28.17;;;21.30;;
5754;SDS011;2902;42.130;24.732;2023-02-28T15:26:02;25.77;;;21.27;;